Time;durP1;ratioP1;P1;durP2;ratioP2;P2;SDS_P1;SDS_P2;PMS_P1;PMS_P2;Temp;Humidity;BMP_temperature;BMP_pressure;BME280_temperature;BME280_humidity;BME280_pressure;Samples;Min_cycle;Max_cycle;Signal;HPM_P1;HPM_P2
2022/07/27 00:00:31;;;;;;;0.90;0.50;;;;;25.70;100819.00;;;;2078885;28;20213;-53
2022/07/27 00:01:31;;;;;;;2.00;0.60;;;;;25.70;100821.00;;;;2078796;28;20314;-53
2022/07/27 00:02:31;;;;;;;1.10;0.50;;;;;25.70;100812.00;;;;2077947;28;20283;-52
2022/07/27 00:03:32;;;;;;;0.80;0.40;;;;;25.70;100815.00;;;;2083016;28;20208;-53
2022/07/27 00:04:32;;;;;;;1.00;0.60;;;;;25.70;100828.00;;;;2086305;28;20236;-54
2022/07/27 00:05:32;;;;;;;0.80;0.50;;;;;25.70;100817.00;;;;2087154;28;20209;-53
2022/07/27 00:06:33;;;;;;;1.87;0.80;;;;;25.70;100817.00;;;;2086836;28;20213;-53
2022/07/27 00:07:33;;;;;;;1.10;0.63;;;;;25.70;100819.00;;;;2086153;28;20220;-52
2022/07/27 00:08:33;;;;;;;1.27;0.60;;;;;25.70;100816.00;;;;2087163;28;20208;-53
2022/07/27 00:09:34;;;;;;;1.20;0.60;;;;;25.70;100814.00;;;;2086212;28;20213;-53
2022/07/27 00:10:35;;;;;;;0.80;0.50;;;;;25.70;100819.00;;;;2086418;28;20240;-53
2022/07/27 00:11:35;;;;;;;1.10;0.57;;;;;25.70;100815.00;;;;2086076;28;20262;-53
2022/07/27 00:12:36;;;;;;;0.70;0.50;;;;;25.60;100816.00;;;;2078818;28;20871;-53
2022/07/27 00:13:36;;;;;;;0.93;0.50;;;;;25.70;100807.00;;;;2078645;28;20793;-53
2022/07/27 00:14:37;;;;;;;1.50;0.63;;;;;25.70;100816.00;;;;2077698;28;20213;-53
2022/07/27 00:15:37;;;;;;;1.17;0.70;;;;;25.70;100811.00;;;;2078574;28;20259;-53
2022/07/27 00:16:37;;;;;;;1.53;0.57;;;;;25.70;100816.00;;;;2078365;28;20224;-53
2022/07/27 00:17:38;;;;;;;1.50;0.70;;;;;25.70;100813.00;;;;2077732;28;20677;-53
2022/07/27 00:18:38;;;;;;;1.40;0.67;;;;;25.70;100812.00;;;;2078417;28;20629;-53
2022/07/27 00:19:38;;;;;;;0.80;0.50;;;;;25.70;100808.00;;;;2078615;28;20479;-59
2022/07/27 00:20:39;;;;;;;1.60;0.60;;;;;25.70;100816.00;;;;2078847;28;20256;-56
2022/07/27 00:21:40;;;;;;;1.03;0.60;;;;;25.70;100823.00;;;;2078723;28;20214;-53
2022/07/27 00:22:40;;;;;;;0.77;0.40;;;;;25.70;100824.00;;;;2085741;28;20905;-53
2022/07/27 00:23:41;;;;;;;1.27;0.60;;;;;25.70;100828.00;;;;2086733;28;20661;-53
2022/07/27 00:24:41;;;;;;;1.10;0.60;;;;;25.70;100822.00;;;;2087076;28;20224;-53
2022/07/27 00:25:41;;;;;;;0.80;0.50;;;;;25.70;100820.00;;;;2086535;28;20785;-53
2022/07/27 00:26:42;;;;;;;1.00;0.60;;;;;25.60;100820.00;;;;2087048;28;20239;-54
2022/07/27 00:27:42;;;;;;;0.90;0.60;;;;;25.70;100830.00;;;;2081992;28;20240;-53
2022/07/27 00:28:42;;;;;;;0.90;0.60;;;;;25.60;100826.00;;;;2071070;28;20209;-54
2022/07/27 00:29:44;;;;;;;1.10;0.63;;;;;25.60;100817.00;;;;2078739;28;20221;-53
2022/07/27 00:30:44;;;;;;;1.00;0.60;;;;;25.70;100817.00;;;;2078843;28;20266;-53
2022/07/27 00:31:45;;;;;;;0.80;0.60;;;;;25.60;100822.00;;;;2078767;28;20448;-53
2022/07/27 00:32:45;;;;;;;0.80;0.50;;;;;25.70;100820.00;;;;2087390;28;20209;-53
2022/07/27 00:33:45;;;;;;;1.30;0.90;;;;;25.60;100817.00;;;;2088560;28;20243;-53
2022/07/27 00:34:46;;;;;;;1.07;0.60;;;;;25.70;100814.00;;;;2081834;28;20213;-53
2022/07/27 00:35:46;;;;;;;1.87;0.57;;;;;25.70;100814.00;;;;2080675;28;20269;-53
2022/07/27 00:36:47;;;;;;;1.17;0.53;;;;;25.60;100818.00;;;;2085536;28;20209;-55
2022/07/27 00:37:47;;;;;;;0.80;0.50;;;;;25.70;100813.00;;;;2087530;28;20239;-55
2022/07/27 00:38:47;;;;;;;1.10;0.60;;;;;25.70;100822.00;;;;2088647;28;20216;-55
2022/07/27 00:39:48;;;;;;;0.93;0.60;;;;;25.60;100818.00;;;;2088528;28;20209;-54
2022/07/27 00:40:48;;;;;;;1.20;0.57;;;;;25.70;100817.00;;;;2088226;28;20295;-54
2022/07/27 00:41:48;;;;;;;0.90;0.50;;;;;25.60;100823.00;;;;2088961;28;20213;-54
2022/07/27 00:42:49;;;;;;;0.97;0.40;;;;;25.60;100818.00;;;;2089378;28;20580;-53
2022/07/27 00:43:52;;;;;;;1.17;0.57;;;;;25.60;100821.00;;;;2089197;28;20611;-53
2022/07/27 00:44:53;;;;;;;1.00;0.77;;;;;25.60;100824.00;;;;2084776;28;20224;-54
2022/07/27 00:45:54;;;;;;;3.27;0.57;;;;;25.60;100820.00;;;;2081069;28;21129;-53
2022/07/27 00:46:55;;;;;;;1.03;0.60;;;;;25.60;100818.00;;;;2081551;28;20526;-54
2022/07/27 00:47:55;;;;;;;0.90;0.50;;;;;25.60;100825.00;;;;2080711;28;20213;-53
2022/07/27 00:48:55;;;;;;;0.97;0.50;;;;;25.60;100823.00;;;;2080512;28;20202;-53
2022/07/27 00:49:56;;;;;;;0.90;0.50;;;;;25.60;100817.00;;;;2081463;28;20227;-53
2022/07/27 00:50:56;;;;;;;0.90;0.50;;;;;25.60;100815.00;;;;2087684;28;20213;-53
2022/07/27 00:51:56;;;;;;;0.80;0.40;;;;;25.60;100827.00;;;;2081902;28;20729;-53
2022/07/27 00:52:57;;;;;;;0.80;0.50;;;;;25.60;100794.00;;;;2080584;28;20283;-53
2022/07/27 00:53:57;;;;;;;1.10;0.60;;;;;25.60;100787.00;;;;2080268;28;20213;-53
2022/07/27 00:54:58;;;;;;;1.00;0.60;;;;;25.60;100795.00;;;;2077667;28;20737;-53
2022/07/27 00:55:58;;;;;;;0.90;0.50;;;;;25.60;100829.00;;;;2079718;28;20240;-53
2022/07/27 00:56:58;;;;;;;1.53;0.50;;;;;25.60;100831.00;;;;2087971;28;20608;-53
2022/07/27 00:57:59;;;;;;;1.63;0.60;;;;;25.60;100787.00;;;;2087888;28;20256;-53
2022/07/27 00:58:59;;;;;;;0.70;0.50;;;;;25.60;100797.00;;;;2086251;28;20548;-53
2022/07/27 01:00:00;;;;;;;1.40;0.53;;;;;25.60;100820.00;;;;2071936;28;20225;-53
2022/07/27 01:01:00;;;;;;;0.80;0.50;;;;;25.60;100824.00;;;;2079705;28;20783;-53
2022/07/27 01:02:01;;;;;;;1.20;0.60;;;;;25.60;100817.00;;;;2079022;28;20682;-53
2022/07/27 01:03:02;;;;;;;1.27;0.60;;;;;25.60;100817.00;;;;2079878;28;20283;-53
2022/07/27 01:04:03;;;;;;;0.90;0.50;;;;;25.60;100817.00;;;;2080090;28;20775;-53
2022/07/27 01:05:03;;;;;;;0.97;0.50;;;;;25.60;100819.00;;;;2080566;28;20517;-53
2022/07/27 01:06:04;;;;;;;1.43;0.60;;;;;25.60;100822.00;;;;2080473;28;20283;-53
2022/07/27 01:07:04;;;;;;;0.90;0.47;;;;;25.60;100817.00;;;;2081166;28;20243;-53
2022/07/27 01:08:06;;;;;;;1.00;0.50;;;;;25.60;100822.00;;;;2080007;28;20219;-53
2022/07/27 01:10:25;;;;;;;1.20;0.50;;;;;25.60;100823.00;;;;2088643;28;20462;-53
2022/07/27 01:11:26;;;;;;;2.00;0.97;;;;;25.60;100829.00;;;;2088474;28;20456;-53
2022/07/27 01:12:31;;;;;;;0.80;0.53;;;;;25.60;100816.00;;;;2088340;28;20220;-54
2022/07/27 01:13:31;;;;;;;1.23;0.60;;;;;25.60;100792.00;;;;2087725;28;20217;-53
2022/07/27 01:14:31;;;;;;;1.37;0.50;;;;;25.60;100812.00;;;;2088273;28;20477;-53
2022/07/27 01:15:31;;;;;;;1.33;0.60;;;;;25.60;100814.00;;;;2088612;28;20240;-53
2022/07/27 01:16:32;;;;;;;1.43;0.60;;;;;25.60;100821.00;;;;2089070;28;20228;-53
2022/07/27 01:17:32;;;;;;;1.43;0.87;;;;;25.60;100811.00;;;;2088404;28;20512;-54
2022/07/27 01:18:35;;;;;;;1.20;0.67;;;;;25.60;100814.00;;;;2089381;28;20205;-53
2022/07/27 01:19:35;;;;;;;1.30;0.60;;;;;25.60;100813.00;;;;2088822;28;20286;-53
2022/07/27 01:20:36;;;;;;;1.00;0.60;;;;;25.60;100805.00;;;;2088251;28;20447;-53
2022/07/27 01:21:36;;;;;;;3.07;0.57;;;;;25.60;100811.00;;;;2089414;28;20216;-53
2022/07/27 01:22:37;;;;;;;0.90;0.50;;;;;25.60;100811.00;;;;2079340;28;20218;-53
2022/07/27 01:23:37;;;;;;;1.73;0.60;;;;;25.60;100803.00;;;;2080455;28;20227;-53
2022/07/27 01:24:38;;;;;;;0.93;0.50;;;;;25.60;100810.00;;;;2087754;28;20220;-53
2022/07/27 01:25:39;;;;;;;0.93;0.60;;;;;25.60;100812.00;;;;2089050;28;20220;-53
2022/07/27 01:26:40;;;;;;;1.40;0.63;;;;;25.60;100802.00;;;;2080921;28;20221;-53
2022/07/27 01:27:40;;;;;;;1.00;0.60;;;;;25.60;100813.00;;;;2063631;28;20453;-53
2022/07/27 01:28:44;;;;;;;1.00;0.60;;;;;25.60;100804.00;;;;2072652;28;20217;-53
2022/07/27 01:29:44;;;;;;;0.90;0.57;;;;;25.60;100843.00;;;;2072208;28;20218;-53
2022/07/27 01:30:45;;;;;;;1.93;0.60;;;;;25.60;100800.00;;;;2072510;28;20994;-53
2022/07/27 01:31:45;;;;;;;0.80;0.50;;;;;25.60;100812.00;;;;2081182;28;20233;-53
2022/07/27 01:32:46;;;;;;;0.90;0.43;;;;;25.60;100810.00;;;;2080689;28;20304;-54
2022/07/27 01:33:46;;;;;;;0.80;0.40;;;;;25.60;100801.00;;;;2084034;28;20556;-53
2022/07/27 01:34:46;;;;;;;1.33;0.60;;;;;25.60;100813.00;;;;2089419;28;20642;-53
2022/07/27 01:35:47;;;;;;;0.90;0.50;;;;;25.60;100812.00;;;;2089690;28;20636;-53
2022/07/27 01:36:47;;;;;;;1.00;0.60;;;;;25.60;100810.00;;;;2089434;28;20234;-53
2022/07/27 01:37:47;;;;;;;1.50;0.50;;;;;25.60;100801.00;;;;2088311;28;20213;-53
2022/07/27 01:38:48;;;;;;;0.80;0.50;;;;;25.60;100804.00;;;;2089452;28;20224;-53
2022/07/27 01:39:48;;;;;;;1.13;0.50;;;;;25.60;100807.00;;;;2089522;28;20208;-53
2022/07/27 01:40:49;;;;;;;1.30;0.50;;;;;25.60;100815.00;;;;2089232;28;20239;-53
2022/07/27 01:41:50;;;;;;;1.20;0.60;;;;;25.60;100804.00;;;;2086909;28;20224;-53
2022/07/27 01:42:50;;;;;;;0.83;0.50;;;;;25.60;100805.00;;;;2081182;28;20455;-53
2022/07/27 01:43:51;;;;;;;1.33;0.60;;;;;25.60;100814.00;;;;2080127;28;20844;-59
2022/07/27 01:44:51;;;;;;;0.70;0.40;;;;;25.60;100816.00;;;;2079194;28;20213;-58
2022/07/27 01:45:51;;;;;;;1.10;0.53;;;;;25.60;100817.00;;;;2080048;28;20209;-56
2022/07/27 01:46:51;;;;;;;1.30;0.77;;;;;25.60;100817.00;;;;2083317;28;20300;-56
2022/07/27 01:47:52;;;;;;;1.00;0.60;;;;;25.60;100812.00;;;;2087169;28;20213;-53
2022/07/27 01:48:53;;;;;;;1.30;0.50;;;;;25.60;100810.00;;;;2088040;28;20256;-54
2022/07/27 01:49:53;;;;;;;0.93;0.60;;;;;25.60;100805.00;;;;2087918;28;20213;-54
2022/07/27 01:50:53;;;;;;;1.50;0.70;;;;;25.60;100813.00;;;;2088270;28;20836;-54
2022/07/27 01:51:54;;;;;;;0.80;0.60;;;;;25.60;100844.00;;;;2088087;28;20748;-54
2022/07/27 01:52:54;;;;;;;1.00;0.60;;;;;25.60;100803.00;;;;2088122;28;20583;-54
2022/07/27 01:53:54;;;;;;;1.47;0.50;;;;;25.60;100810.00;;;;2087752;28;20623;-53
2022/07/27 01:54:55;;;;;;;0.80;0.50;;;;;25.60;100815.00;;;;2088060;28;20224;-54
2022/07/27 01:55:55;;;;;;;2.03;0.67;;;;;25.60;100805.00;;;;2088074;28;20231;-53
2022/07/27 01:56:55;;;;;;;1.13;0.60;;;;;25.60;100816.00;;;;2088187;28;20258;-52
2022/07/27 01:57:56;;;;;;;1.20;0.50;;;;;25.60;100800.00;;;;2085370;28;20258;-55
2022/07/27 01:58:57;;;;;;;0.70;0.40;;;;;25.60;100810.00;;;;2078525;28;20252;-55
2022/07/27 01:59:59;;;;;;;1.50;0.60;;;;;25.60;100805.00;;;;2079771;28;20213;-54
2022/07/27 02:00:59;;;;;;;1.23;0.50;;;;;25.60;100806.00;;;;2079865;28;20452;-54
2022/07/27 02:01:59;;;;;;;0.90;0.50;;;;;25.60;100804.00;;;;2078659;28;20460;-53
2022/07/27 02:03:00;;;;;;;1.60;0.70;;;;;25.60;100811.00;;;;2079859;28;20241;-53
2022/07/27 02:04:01;;;;;;;1.63;0.77;;;;;24.90;100809.00;;;;2079521;28;20213;-53
2022/07/27 02:05:01;;;;;;;1.37;0.60;;;;;25.60;100802.00;;;;2079722;28;20536;-53
2022/07/27 02:06:01;;;;;;;1.67;0.60;;;;;25.60;100809.00;;;;2081659;28;20259;-54
2022/07/27 02:07:02;;;;;;;1.37;0.53;;;;;25.60;100807.00;;;;2088096;28;20236;-53
2022/07/27 02:08:03;;;;;;;1.00;0.60;;;;;25.50;100807.00;;;;2087185;28;20770;-53
2022/07/27 02:09:03;;;;;;;1.20;0.70;;;;;25.60;100808.00;;;;2087863;28;20201;-53
2022/07/27 02:10:04;;;;;;;0.80;0.53;;;;;25.60;100807.00;;;;2086413;28;20235;-53
2022/07/27 02:12:35;;;;;;;1.33;0.60;;;;;25.50;100811.00;;;;2085808;28;20439;-53
2022/07/27 02:13:36;;;;;;;1.13;0.50;;;;;25.50;100813.00;;;;2087537;28;20485;-54
2022/07/27 02:14:36;;;;;;;1.57;0.60;;;;;25.60;100811.00;;;;2087623;28;20443;-53
2022/07/27 02:15:36;;;;;;;1.13;0.60;;;;;25.60;100806.00;;;;2088076;28;20332;-53
2022/07/27 02:16:37;;;;;;;3.30;0.63;;;;;25.50;100809.00;;;;2087959;28;20209;-53
2022/07/27 02:17:38;;;;;;;1.00;0.73;;;;;25.60;100813.00;;;;2087029;28;20205;-54
2022/07/27 02:18:39;;;;;;;1.10;0.50;;;;;25.60;100813.00;;;;2087874;28;20220;-54
2022/07/27 02:19:39;;;;;;;1.10;0.60;;;;;25.60;100812.00;;;;2087967;28;20754;-53
2022/07/27 02:20:41;;;;;;;1.30;0.63;;;;;25.60;100814.00;;;;2086858;28;20204;-53
2022/07/27 02:21:41;;;;;;;1.20;0.60;;;;;25.60;100811.00;;;;2087129;28;20295;-53
2022/07/27 02:22:42;;;;;;;1.07;0.70;;;;;25.60;100821.00;;;;2087683;28;20479;-53
2022/07/27 02:23:43;;;;;;;0.70;0.40;;;;;25.60;100810.00;;;;2087598;28;20208;-53
2022/07/27 02:24:44;;;;;;;0.90;0.50;;;;;25.60;100811.00;;;;2087580;28;20209;-54
2022/07/27 02:25:44;;;;;;;1.00;0.50;;;;;25.50;100810.00;;;;2087971;28;20545;-54
2022/07/27 02:26:44;;;;;;;0.93;0.60;;;;;25.50;100813.00;;;;2087583;28;20213;-54
2022/07/27 02:27:45;;;;;;;1.07;0.70;;;;;25.60;100808.00;;;;2084176;28;20205;-53
2022/07/27 02:28:45;;;;;;;2.43;0.60;;;;;25.60;100807.00;;;;2079630;28;20736;-53
2022/07/27 02:29:46;;;;;;;1.03;0.70;;;;;25.50;100810.00;;;;2080334;28;20217;-53
2022/07/27 02:30:46;;;;;;;1.77;0.77;;;;;25.50;100819.00;;;;2088081;28;20677;-53
2022/07/27 02:31:46;;;;;;;1.30;0.70;;;;;25.50;100805.00;;;;2081890;28;20322;-53
2022/07/27 02:32:46;;;;;;;1.67;0.80;;;;;25.50;100810.00;;;;2079566;28;20224;-53
2022/07/27 02:33:47;;;;;;;1.93;0.90;;;;;25.50;100810.00;;;;2079456;28;20216;-53
2022/07/27 02:34:47;;;;;;;1.20;0.67;;;;;25.60;100807.00;;;;2079511;28;20217;-53
2022/07/27 02:35:47;;;;;;;1.10;0.60;;;;;25.50;100809.00;;;;2079244;28;20695;-53
2022/07/27 02:36:48;;;;;;;1.93;0.77;;;;;25.50;100811.00;;;;2079669;28;20217;-54
2022/07/27 02:37:48;;;;;;;0.90;0.60;;;;;25.50;100813.00;;;;2078760;28;20217;-53
2022/07/27 02:38:48;;;;;;;1.10;0.60;;;;;25.50;100811.00;;;;2078876;28;20213;-54
2022/07/27 02:39:49;;;;;;;1.10;0.50;;;;;25.50;100813.00;;;;2079033;28;20217;-53
2022/07/27 02:40:49;;;;;;;1.10;0.70;;;;;25.50;100807.00;;;;2079685;28;20225;-53
2022/07/27 02:41:49;;;;;;;1.33;0.70;;;;;25.50;100811.00;;;;2079528;28;20233;-53
2022/07/27 02:42:50;;;;;;;0.90;0.57;;;;;25.50;100816.00;;;;2077890;28;20214;-54
2022/07/27 02:43:50;;;;;;;0.93;0.57;;;;;25.50;100808.00;;;;2079287;28;20221;-53
2022/07/27 02:44:50;;;;;;;1.00;0.60;;;;;25.50;100807.00;;;;2079430;28;20236;-53
2022/07/27 02:45:51;;;;;;;1.37;0.70;;;;;25.50;100798.00;;;;2078988;28;20206;-53
2022/07/27 02:46:51;;;;;;;1.30;0.60;;;;;25.50;100801.00;;;;2079286;28;20224;-53
2022/07/27 02:47:51;;;;;;;1.13;0.90;;;;;25.50;100799.00;;;;2078326;28;20237;-53
2022/07/27 02:48:52;;;;;;;1.87;0.90;;;;;25.50;100802.00;;;;2085455;28;20223;-53
2022/07/27 02:49:52;;;;;;;1.00;0.70;;;;;25.50;100801.00;;;;2087702;28;20213;-53
2022/07/27 02:50:52;;;;;;;1.37;0.60;;;;;25.50;100803.00;;;;2086827;28;20224;-53
2022/07/27 02:51:53;;;;;;;0.90;0.50;;;;;25.50;100807.00;;;;2086400;28;20258;-53
2022/07/27 02:52:53;;;;;;;1.50;0.70;;;;;25.50;100858.00;;;;2086949;28;20213;-53
2022/07/27 02:53:53;;;;;;;1.83;1.00;;;;;25.50;100801.00;;;;2086901;28;20709;-53
2022/07/27 02:54:54;;;;;;;1.43;0.67;;;;;25.50;100797.00;;;;2087374;28;20704;-53
2022/07/27 02:55:54;;;;;;;1.33;0.60;;;;;25.50;100802.00;;;;2086506;28;20685;-53
2022/07/27 02:56:55;;;;;;;1.07;0.60;;;;;25.50;100806.00;;;;2078431;28;20682;-53
2022/07/27 02:57:55;;;;;;;2.60;0.80;;;;;25.50;100803.00;;;;2085071;28;20713;-53
2022/07/27 02:58:55;;;;;;;1.53;0.70;;;;;25.50;100799.00;;;;2087763;28;20217;-53
2022/07/27 02:59:56;;;;;;;1.40;0.73;;;;;25.50;100799.00;;;;2087678;28;20209;-53
2022/07/27 03:00:56;;;;;;;1.50;0.60;;;;;25.50;100797.00;;;;2087650;28;20247;-53
2022/07/27 03:01:56;;;;;;;0.93;0.60;;;;;25.50;100797.00;;;;2087351;28;20221;-53
2022/07/27 03:02:57;;;;;;;1.10;0.50;;;;;25.50;100799.00;;;;2087604;28;20255;-53
2022/07/27 03:03:57;;;;;;;1.43;0.87;;;;;25.50;100803.00;;;;2087117;28;20275;-53
2022/07/27 03:04:57;;;;;;;1.00;0.70;;;;;25.50;100801.00;;;;2087441;28;20220;-53
2022/07/27 03:05:58;;;;;;;1.20;0.50;;;;;25.50;100802.00;;;;2087340;28;20221;-53
2022/07/27 03:06:58;;;;;;;1.00;0.80;;;;;25.50;100797.00;;;;2087556;28;20251;-53
2022/07/27 03:07:59;;;;;;;1.93;0.80;;;;;25.50;100801.00;;;;2086447;28;20213;-53
2022/07/27 03:08:59;;;;;;;1.00;0.60;;;;;25.50;100803.00;;;;2087307;28;20212;-53
2022/07/27 03:09:59;;;;;;;1.33;0.50;;;;;25.50;100797.00;;;;2087313;28;20275;-53
2022/07/27 03:11:00;;;;;;;1.30;0.60;;;;;25.50;100801.00;;;;2087396;28;20221;-53
2022/07/27 03:12:01;;;;;;;1.03;0.67;;;;;25.50;100807.00;;;;2087298;28;20228;-53
2022/07/27 03:13:01;;;;;;;1.67;0.70;;;;;25.50;100799.00;;;;2086757;28;20228;-53
2022/07/27 03:14:01;;;;;;;1.47;0.60;;;;;25.50;100804.00;;;;2086471;28;20455;-53
2022/07/27 03:15:02;;;;;;;0.90;0.50;;;;;25.50;100797.00;;;;2084596;28;20225;-53
2022/07/27 03:16:03;;;;;;;1.00;0.70;;;;;25.50;100800.00;;;;2079356;28;20292;-53
2022/07/27 03:17:03;;;;;;;1.00;0.60;;;;;25.50;100798.00;;;;2079309;28;20292;-53
2022/07/27 03:18:03;;;;;;;1.63;0.63;;;;;25.50;100797.00;;;;2078439;28;20297;-53
2022/07/27 03:19:05;;;;;;;1.00;0.80;;;;;25.50;100803.00;;;;2079184;28;20217;-53
2022/07/27 03:20:06;;;;;;;1.43;0.80;;;;;25.50;100797.00;;;;2082278;28;20682;-54
2022/07/27 03:21:06;;;;;;;1.10;0.63;;;;;25.50;100801.00;;;;2087294;28;20459;-54
2022/07/27 03:22:07;;;;;;;1.37;0.70;;;;;25.50;100797.00;;;;2087228;28;20490;-53
2022/07/27 03:23:07;;;;;;;1.00;0.60;;;;;25.50;100793.00;;;;2087148;28;20209;-54
2022/07/27 03:24:07;;;;;;;0.90;0.50;;;;;25.50;100794.00;;;;2086967;28;20209;-54
2022/07/27 03:25:08;;;;;;;2.00;0.70;;;;;25.50;100791.00;;;;2086945;28;20289;-54
2022/07/27 03:26:09;;;;;;;0.90;0.70;;;;;25.50;100798.00;;;;2086957;28;20613;-53
2022/07/27 03:27:09;;;;;;;1.20;0.73;;;;;25.50;100884.00;;;;2087256;28;20295;-54
2022/07/27 03:28:09;;;;;;;1.63;0.80;;;;;25.50;100809.00;;;;2083283;28;20686;-54
2022/07/27 03:29:10;;;;;;;0.90;0.80;;;;;25.50;100809.00;;;;2079071;28;20736;-53
2022/07/27 03:30:10;;;;;;;0.80;0.60;;;;;25.50;100800.00;;;;2079343;28;20682;-53
2022/07/27 03:31:10;;;;;;;0.93;0.60;;;;;25.50;100806.00;;;;2079072;28;20752;-54
2022/07/27 03:32:11;;;;;;;1.00;0.70;;;;;25.50;100806.00;;;;2079115;28;20260;-53
2022/07/27 03:33:11;;;;;;;0.90;0.60;;;;;25.50;100804.00;;;;2079137;28;20213;-53
2022/07/27 03:34:11;;;;;;;1.00;0.70;;;;;25.50;100804.00;;;;2078995;28;20252;-54
2022/07/27 03:35:12;;;;;;;1.30;0.80;;;;;25.50;100805.00;;;;2078805;28;20222;-54
2022/07/27 03:36:12;;;;;;;1.03;0.70;;;;;25.50;100802.00;;;;2078688;28;20220;-54
2022/07/27 03:37:14;;;;;;;1.50;0.80;;;;;25.50;100814.00;;;;2078925;28;20201;-53
2022/07/27 03:38:14;;;;;;;1.47;0.73;;;;;25.50;100815.00;;;;2083331;28;20209;-54
2022/07/27 03:39:14;;;;;;;1.07;0.60;;;;;25.40;100817.00;;;;2087277;28;20891;-53
2022/07/27 03:40:15;;;;;;;1.10;0.83;;;;;25.50;100823.00;;;;2087090;28;20240;-54
2022/07/27 03:41:15;;;;;;;1.10;0.80;;;;;25.40;100813.00;;;;2087279;28;20698;-54
2022/07/27 03:42:16;;;;;;;1.30;0.70;;;;;25.50;100820.00;;;;2086902;28;20212;-54
2022/07/27 03:43:16;;;;;;;1.00;0.60;;;;;25.40;100819.00;;;;2087187;28;20295;-53
2022/07/27 03:44:16;;;;;;;1.07;0.67;;;;;25.40;100822.00;;;;2086859;28;20258;-54
2022/07/27 03:45:17;;;;;;;1.73;0.80;;;;;25.50;100824.00;;;;2087257;28;20689;-54
2022/07/27 03:46:17;;;;;;;1.43;0.80;;;;;25.50;100814.00;;;;2086247;28;20689;-54
2022/07/27 03:47:17;;;;;;;1.37;0.80;;;;;25.40;100824.00;;;;2078491;28;20224;-53
2022/07/27 03:48:18;;;;;;;1.60;0.90;;;;;25.40;100807.00;;;;2078722;28;20209;-53
2022/07/27 03:49:18;;;;;;;1.53;0.90;;;;;25.50;100828.00;;;;2085384;28;20540;-53
2022/07/27 03:50:18;;;;;;;1.97;0.80;;;;;25.00;100817.00;;;;2086788;28;20247;-54
2022/07/27 03:51:19;;;;;;;1.10;0.63;;;;;25.40;100820.00;;;;2086707;28;20464;-53
2022/07/27 03:52:20;;;;;;;1.20;0.70;;;;;25.40;100821.00;;;;2086786;28;20229;-53
2022/07/27 03:53:20;;;;;;;1.00;0.63;;;;;25.40;100826.00;;;;2086923;28;21169;-53
2022/07/27 03:54:20;;;;;;;1.77;0.90;;;;;25.40;100820.00;;;;2086390;28;20216;-53
2022/07/27 03:55:21;;;;;;;0.80;0.70;;;;;25.40;100817.00;;;;2086753;28;20251;-54
2022/07/27 03:56:21;;;;;;;1.00;0.70;;;;;25.40;100818.00;;;;2086701;28;20225;-53
2022/07/27 03:57:23;;;;;;;0.97;0.60;;;;;25.40;100848.00;;;;2085993;28;20209;-53
2022/07/27 03:58:23;;;;;;;1.00;0.60;;;;;25.40;100801.00;;;;2086430;28;20598;-53
2022/07/27 03:59:24;;;;;;;1.20;0.70;;;;;25.40;100816.00;;;;2086735;28;20483;-54
2022/07/27 04:00:24;;;;;;;1.30;0.63;;;;;25.40;100824.00;;;;2086688;28;20205;-52
2022/07/27 04:01:24;;;;;;;1.70;1.00;;;;;25.40;100823.00;;;;2086918;28;20409;-53
2022/07/27 04:02:25;;;;;;;2.90;0.80;;;;;25.40;100826.00;;;;2085621;28;20216;-53
2022/07/27 04:03:25;;;;;;;0.90;0.60;;;;;25.40;100820.00;;;;2086644;28;20225;-53
2022/07/27 04:04:25;;;;;;;1.27;0.90;;;;;25.40;100824.00;;;;2086723;28;20216;-53
2022/07/27 04:05:26;;;;;;;1.67;0.80;;;;;25.40;100827.00;;;;2086587;28;20296;-52
2022/07/27 04:06:26;;;;;;;1.00;0.77;;;;;25.40;100828.00;;;;2086717;28;20205;-53
2022/07/27 04:07:26;;;;;;;1.10;0.70;;;;;25.40;100829.00;;;;2085038;28;20220;-53
2022/07/27 04:08:27;;;;;;;1.10;0.60;;;;;25.40;100830.00;;;;2078403;28;20308;-53
2022/07/27 04:09:27;;;;;;;1.00;0.80;;;;;25.40;100829.00;;;;2078684;28;20213;-53
2022/07/27 04:10:27;;;;;;;1.10;0.70;;;;;25.40;100834.00;;;;2078589;28;20213;-53
2022/07/27 04:11:28;;;;;;;1.33;0.83;;;;;25.40;100832.00;;;;2078464;28;20248;-53
2022/07/27 04:12:28;;;;;;;2.53;1.37;;;;;25.40;100831.00;;;;2078816;28;20229;-53
2022/07/27 04:13:28;;;;;;;0.93;0.60;;;;;25.40;100833.00;;;;2078751;28;20214;-53
2022/07/27 04:14:29;;;;;;;1.73;0.80;;;;;25.40;100826.00;;;;2078637;28;20233;-53
2022/07/27 04:15:29;;;;;;;0.80;0.60;;;;;25.40;100828.00;;;;2078803;28;20214;-53
2022/07/27 04:16:30;;;;;;;0.90;0.70;;;;;25.40;100883.00;;;;2078920;28;20559;-53
2022/07/27 04:17:30;;;;;;;1.10;0.80;;;;;25.40;100831.00;;;;2077877;28;20592;-53
2022/07/27 04:18:30;;;;;;;1.10;0.80;;;;;25.40;100837.00;;;;2078698;28;20214;-53
2022/07/27 04:19:30;;;;;;;1.17;0.77;;;;;25.40;100838.00;;;;2078683;28;20224;-53
2022/07/27 04:20:31;;;;;;;1.00;0.70;;;;;25.40;100843.00;;;;2078726;28;20275;-53
2022/07/27 04:21:31;;;;;;;1.00;0.70;;;;;25.40;100833.00;;;;2078575;28;20219;-53
2022/07/27 04:22:32;;;;;;;2.20;1.07;;;;;25.40;100833.00;;;;2078855;28;20209;-53
2022/07/27 04:23:32;;;;;;;1.67;0.80;;;;;25.40;100838.00;;;;2078552;28;20225;-53
2022/07/27 04:24:32;;;;;;;1.33;0.80;;;;;25.40;100844.00;;;;2078491;28;20242;-52
2022/07/27 04:25:33;;;;;;;2.10;0.80;;;;;25.40;100834.00;;;;2078542;28;20229;-53
2022/07/27 04:26:33;;;;;;;1.17;0.80;;;;;25.40;100837.00;;;;2078662;28;20256;-53
2022/07/27 04:27:33;;;;;;;1.40;0.77;;;;;25.40;100843.00;;;;2078160;28;20324;-53
2022/07/27 04:28:34;;;;;;;0.83;0.70;;;;;25.40;100837.00;;;;2078755;28;20213;-53
2022/07/27 04:29:34;;;;;;;1.30;0.70;;;;;25.40;100838.00;;;;2078841;28;20232;-53
2022/07/27 04:30:34;;;;;;;1.07;0.80;;;;;25.40;100835.00;;;;2078391;28;20300;-53
2022/07/27 04:31:35;;;;;;;1.13;0.77;;;;;25.40;100835.00;;;;2078688;28;20221;-53
2022/07/27 04:32:35;;;;;;;2.13;0.90;;;;;25.40;100837.00;;;;2078831;28;20237;-53
2022/07/27 04:33:35;;;;;;;1.10;0.70;;;;;25.40;100831.00;;;;2082346;28;20217;-53
2022/07/27 04:34:36;;;;;;;0.90;0.67;;;;;25.40;100843.00;;;;2086652;28;20217;-53
2022/07/27 04:35:36;;;;;;;1.43;0.70;;;;;25.40;100846.00;;;;2086487;28;20250;-53
2022/07/27 04:36:37;;;;;;;0.90;0.70;;;;;25.40;100851.00;;;;2086534;28;20221;-53
2022/07/27 04:37:37;;;;;;;1.27;0.90;;;;;25.40;100848.00;;;;2084964;28;20220;-53
2022/07/27 04:38:38;;;;;;;1.57;0.80;;;;;25.40;100845.00;;;;2085925;28;20475;-53
2022/07/27 04:39:38;;;;;;;0.97;0.60;;;;;25.40;100846.00;;;;2086555;28;20224;-53
2022/07/27 04:40:39;;;;;;;1.30;0.90;;;;;25.40;100858.00;;;;2086330;28;20407;-53
2022/07/27 04:41:39;;;;;;;1.10;0.80;;;;;25.40;100510.00;;;;2086394;28;20698;-53
2022/07/27 04:42:39;;;;;;;1.73;1.00;;;;;25.40;100856.00;;;;2086444;28;20286;-53
2022/07/27 04:43:40;;;;;;;1.40;0.60;;;;;25.40;100860.00;;;;2086516;28;20219;-53
2022/07/27 04:44:40;;;;;;;1.00;0.70;;;;;25.40;100848.00;;;;2086488;28;20299;-53
2022/07/27 04:45:40;;;;;;;2.00;0.80;;;;;25.40;100859.00;;;;2086520;28;20226;-53
2022/07/27 04:46:41;;;;;;;1.10;0.77;;;;;25.40;100866.00;;;;2086624;28;20220;-53
2022/07/27 04:47:41;;;;;;;1.93;1.10;;;;;25.40;100857.00;;;;2085634;28;20220;-53
2022/07/27 04:48:42;;;;;;;1.10;0.73;;;;;25.40;100857.00;;;;2079885;28;20715;-53
2022/07/27 04:49:42;;;;;;;2.50;1.10;;;;;25.40;100851.00;;;;2094162;28;20696;-53
2022/07/27 04:50:43;;;;;;;2.20;0.90;;;;;25.40;100853.00;;;;2090951;28;20212;-53
2022/07/27 04:51:44;;;;;;;1.20;0.70;;;;;25.40;100814.00;;;;2081009;28;20221;-53
2022/07/27 04:52:44;;;;;;;1.73;1.00;;;;;25.40;100854.00;;;;2077376;28;20225;-53
2022/07/27 04:53:45;;;;;;;1.10;0.80;;;;;25.40;100850.00;;;;2070252;28;20248;-53
2022/07/27 04:54:45;;;;;;;1.10;0.87;;;;;25.40;100858.00;;;;2082523;28;20216;-52
2022/07/27 04:55:45;;;;;;;1.93;0.70;;;;;25.40;100851.00;;;;2085623;28;20212;-53
2022/07/27 04:56:46;;;;;;;1.60;0.90;;;;;25.40;100850.00;;;;2086818;28;20222;-53
2022/07/27 04:57:46;;;;;;;1.33;0.80;;;;;25.40;100850.00;;;;2086126;28;20323;-53
2022/07/27 04:58:47;;;;;;;1.43;0.70;;;;;25.40;100855.00;;;;2086799;28;20208;-53
2022/07/27 04:59:47;;;;;;;1.50;0.90;;;;;25.40;100851.00;;;;2086858;28;20220;-53
2022/07/27 05:00:48;;;;;;;1.17;0.80;;;;;25.40;100857.00;;;;2086683;28;20579;-53
2022/07/27 05:01:48;;;;;;;1.13;0.70;;;;;25.40;100852.00;;;;2086275;28;20802;-53